createdAt,value
2018-05-17T00:00:01.213Z,13.40
2018-05-17T00:02:27.865Z,14.17
2018-05-17T00:04:54.514Z,15.07
2018-05-17T00:07:21.205Z,13.17
2018-05-17T00:09:48.546Z,13.60
2018-05-17T00:12:15.195Z,12.33
2018-05-17T00:14:41.868Z,11.83
2018-05-17T00:17:08.547Z,12.50
2018-05-17T00:19:35.524Z,12.93
2018-05-17T00:22:02.223Z,12.37
2018-05-17T00:24:28.882Z,12.17
2018-05-17T00:26:55.529Z,12.40
2018-05-17T00:29:22.228Z,12.73
2018-05-17T00:31:48.872Z,13.47
2018-05-17T00:34:15.528Z,12.63
2018-05-17T00:36:42.210Z,13.43
2018-05-17T00:39:08.901Z,14.47
2018-05-17T00:41:35.556Z,14.40
2018-05-17T00:44:02.588Z,15.00
2018-05-17T00:46:29.272Z,16.17
2018-05-17T00:48:55.929Z,17.40
2018-05-17T00:51:23.320Z,17.90
2018-05-17T00:53:50.001Z,19.97
2018-05-17T00:56:17.020Z,20.47
2018-05-17T00:58:43.748Z,20.43
2018-05-17T01:01:10.433Z,20.37
2018-05-17T01:03:37.169Z,19.43
2018-05-17T01:06:03.818Z,20.80
2018-05-17T01:08:30.489Z,25.80
2018-05-17T01:10:57.186Z,25.40
2018-05-17T01:13:23.821Z,20.97
2018-05-17T01:15:50.498Z,22.37
2018-05-17T01:18:17.222Z,23.83
2018-05-17T01:20:43.845Z,23.47
2018-05-17T01:23:10.558Z,22.20
2018-05-17T01:25:37.222Z,21.63
2018-05-17T01:28:03.847Z,24.63
2018-05-17T01:30:30.516Z,26.13
2018-05-17T01:32:57.156Z,24.90
2018-05-17T01:35:23.787Z,22.83
2018-05-17T01:37:56.158Z,21.77
2018-05-17T01:40:22.800Z,22.00
2018-05-17T01:42:49.472Z,19.90
2018-05-17T01:45:16.128Z,20.20
2018-05-17T01:47:42.765Z,20.30
2018-05-17T01:50:09.410Z,20.13
2018-05-17T01:52:36.054Z,19.47
2018-05-17T01:55:02.699Z,17.77
2018-05-17T01:57:29.352Z,17.10
2018-05-17T01:59:55.999Z,15.90
2018-05-17T02:02:22.683Z,16.53
2018-05-17T02:04:49.306Z,15.03
2018-05-17T02:07:15.931Z,15.07
2018-05-17T02:09:42.703Z,14.17
2018-05-17T02:12:10.090Z,13.30
2018-05-17T02:14:36.707Z,13.77
2018-05-17T02:17:03.476Z,14.07
2018-05-17T02:19:30.132Z,14.07
2018-05-17T02:21:56.828Z,12.50
2018-05-17T02:24:23.502Z,13.27
2018-05-17T02:26:50.133Z,13.57
2018-05-17T02:29:16.790Z,13.40
2018-05-17T02:31:43.457Z,14.53
2018-05-17T02:34:10.101Z,12.90
2018-05-17T02:36:36.771Z,13.83
2018-05-17T02:39:03.438Z,13.00
2018-05-17T02:41:30.136Z,13.10
2018-05-17T02:43:56.769Z,11.57
2018-05-17T02:46:23.425Z,13.37
2018-05-17T02:48:50.072Z,12.57
2018-05-17T02:51:16.700Z,13.30
2018-05-17T02:53:43.366Z,12.17
2018-05-17T02:56:10.006Z,12.37
2018-05-17T02:58:36.650Z,12.40
2018-05-17T03:01:03.347Z,13.07
2018-05-17T03:03:29.988Z,13.17
2018-05-17T03:05:56.649Z,13.47
2018-05-17T03:08:23.318Z,13.17
2018-05-17T03:10:49.990Z,13.20
2018-05-17T03:13:16.665Z,13.10
2018-05-17T03:15:43.296Z,14.30
2018-05-17T03:18:09.978Z,12.60
2018-05-17T03:20:36.717Z,17.60
2018-05-17T03:23:03.459Z,17.27
2018-05-17T03:25:30.104Z,20.53
2018-05-17T03:27:56.848Z,20.27
2018-05-17T03:30:23.481Z,22.60
2018-05-17T03:32:50.147Z,23.43
2018-05-17T03:35:16.777Z,22.70
2018-05-17T03:37:43.457Z,24.93
2018-05-17T03:40:10.172Z,21.97
2018-05-17T03:42:36.825Z,20.60
2018-05-17T03:45:03.476Z,24.37
2018-05-17T03:47:30.116Z,23.77
2018-05-17T03:49:56.782Z,21.27
2018-05-17T03:52:23.451Z,22.50
2018-05-17T03:54:50.113Z,22.57
2018-05-17T03:57:16.757Z,21.60
2018-05-17T03:59:43.425Z,21.63
2018-05-17T04:02:15.931Z,24.73
2018-05-17T04:04:48.260Z,24.53
2018-05-17T04:07:14.956Z,21.47
2018-05-17T04:09:41.639Z,21.43
2018-05-17T04:12:08.360Z,22.37
2018-05-17T04:14:35.067Z,21.80
2018-05-17T04:17:01.754Z,20.07
2018-05-17T04:19:28.399Z,23.43
2018-05-17T04:21:55.068Z,23.00
2018-05-17T04:24:21.711Z,26.10
2018-05-17T04:26:48.372Z,24.63
2018-05-17T04:29:15.352Z,25.30
2018-05-17T04:31:41.983Z,30.50
2018-05-17T04:34:08.625Z,23.87
2018-05-17T04:36:35.344Z,23.07
2018-05-17T04:39:01.977Z,21.23
2018-05-17T04:41:28.622Z,24.00
2018-05-17T04:43:55.277Z,22.23
2018-05-17T04:46:21.965Z,20.57
2018-05-17T04:48:48.638Z,17.57
2018-05-17T04:51:15.286Z,17.73
2018-05-17T04:53:41.934Z,18.17
2018-05-17T04:56:08.605Z,18.87
2018-05-17T04:58:35.280Z,18.57
2018-05-17T05:01:01.919Z,18.00
2018-05-17T05:03:28.935Z,16.67
2018-05-17T05:05:55.651Z,16.80
2018-05-17T05:08:22.295Z,18.30
2018-05-17T05:10:48.960Z,19.40
2018-05-17T05:13:15.666Z,18.10
2018-05-17T05:15:42.382Z,19.93
2018-05-17T05:18:09.085Z,20.47
2018-05-17T05:20:35.733Z,21.90
2018-05-17T05:23:02.380Z,20.87
2018-05-17T05:25:29.216Z,18.43
2018-05-17T05:27:55.870Z,22.40
2018-05-17T05:30:22.551Z,21.37
2018-05-17T05:32:49.212Z,18.60
2018-05-17T05:35:15.836Z,20.00
2018-05-17T05:37:42.477Z,21.50
2018-05-17T05:40:09.160Z,20.90
2018-05-17T05:42:35.836Z,20.07
2018-05-17T05:45:02.551Z,22.63
2018-05-17T05:47:29.187Z,22.17
2018-05-17T05:49:55.877Z,22.70
2018-05-17T05:52:22.875Z,21.27
2018-05-17T05:54:50.960Z,21.57
2018-05-17T05:57:17.636Z,24.13
2018-05-17T05:59:45.260Z,25.23
2018-05-17T06:02:11.869Z,23.93
2018-05-17T06:04:38.512Z,25.80
2018-05-17T06:07:05.172Z,28.87
2018-05-17T06:09:31.889Z,31.97
2018-05-17T06:11:58.519Z,32.40
2018-05-17T06:14:25.174Z,30.80
2018-05-17T06:16:51.893Z,32.33
2018-05-17T06:19:19.471Z,32.27
2018-05-17T06:21:46.145Z,31.00
2018-05-17T06:24:12.842Z,40.33
2018-05-17T06:26:39.527Z,36.43
2018-05-17T06:29:06.206Z,34.53
2018-05-17T06:31:32.868Z,32.63
2018-05-17T06:33:59.529Z,36.43
2018-05-17T06:36:26.529Z,34.67
2018-05-17T06:38:53.217Z,36.63
2018-05-17T06:41:20.728Z,41.33
2018-05-17T06:43:47.478Z,41.27
2018-05-17T06:46:14.209Z,38.27
2018-05-17T06:48:40.891Z,35.70
2018-05-17T06:51:07.604Z,46.30
2018-05-17T06:53:34.260Z,42.50
2018-05-17T06:56:00.939Z,35.90
2018-05-17T06:58:27.592Z,37.13
2018-05-17T07:00:54.264Z,37.53
2018-05-17T07:03:20.929Z,33.03
2018-05-17T07:05:47.711Z,34.30
2018-05-17T07:08:14.397Z,31.70
2018-05-17T07:10:41.112Z,32.43
2018-05-17T07:13:07.842Z,35.07
2018-05-17T07:15:34.501Z,28.90
2018-05-17T07:18:01.393Z,29.10
2018-05-17T07:20:27.906Z,30.10
2018-05-17T07:22:54.592Z,29.40
2018-05-17T07:25:21.299Z,29.17
2018-05-17T07:27:47.959Z,24.47
2018-05-17T07:30:14.622Z,25.00
2018-05-17T07:32:41.290Z,24.43
2018-05-17T07:35:07.953Z,28.23
2018-05-17T07:37:34.623Z,23.93
2018-05-17T07:40:01.392Z,26.57
2018-05-17T07:42:28.085Z,31.63
2018-05-17T07:44:54.738Z,24.03
2018-05-17T07:47:21.415Z,27.30
2018-05-17T07:49:48.094Z,22.27
2018-05-17T07:52:14.806Z,24.27
2018-05-17T07:54:41.416Z,19.27
2018-05-17T07:57:08.137Z,23.53
2018-05-17T07:59:34.809Z,18.53
2018-05-17T08:02:01.462Z,20.80
2018-05-17T08:04:28.186Z,22.40
2018-05-17T08:06:54.887Z,17.77
2018-05-17T08:09:21.639Z,21.77
2018-05-17T08:11:48.252Z,20.27
2018-05-17T08:14:14.922Z,22.60
2018-05-17T08:16:41.577Z,20.97
2018-05-17T08:19:08.268Z,23.30
2018-05-17T08:21:34.957Z,21.47
2018-05-17T08:24:01.753Z,25.37
2018-05-17T08:26:29.863Z,20.30
2018-05-17T08:28:56.558Z,22.37
2018-05-17T08:31:23.228Z,18.97
2018-05-17T08:33:49.895Z,21.80
2018-05-17T08:36:16.595Z,19.10
2018-05-17T08:38:43.285Z,23.87
2018-05-17T08:41:09.988Z,21.40
2018-05-17T08:43:36.805Z,20.23
2018-05-17T08:46:03.441Z,22.83
2018-05-17T08:48:30.941Z,21.23
2018-05-17T08:50:57.609Z,22.13
2018-05-17T08:59:33.415Z,21.87
2018-05-17T09:02:00.101Z,21.67
2018-05-17T09:04:26.740Z,20.60
2018-05-17T09:06:53.519Z,22.70
2018-05-17T09:09:20.202Z,19.80
2018-05-17T09:11:47.369Z,25.63
2018-05-17T09:14:14.055Z,25.90
2018-05-17T09:16:40.751Z,22.73
2018-05-17T09:19:12.924Z,23.00
2018-05-17T09:21:40.247Z,22.73
2018-05-17T09:24:09.663Z,21.20
2018-05-17T09:26:36.365Z,21.07
2018-05-17T09:29:03.056Z,21.37
2018-05-17T09:31:29.740Z,23.37
2018-05-17T09:33:57.282Z,22.37
2018-05-17T09:36:23.944Z,24.00
2018-05-17T09:38:50.676Z,21.23
2018-05-17T09:41:17.489Z,21.47
2018-05-17T09:43:44.088Z,19.90
2018-05-17T09:46:10.736Z,28.73
2018-05-17T09:48:37.482Z,29.50
2018-05-17T09:51:04.212Z,22.87
2018-05-17T09:53:30.910Z,28.53
2018-05-17T09:55:57.595Z,23.73
2018-05-17T09:58:24.259Z,23.87
2018-05-17T10:00:50.994Z,27.20
2018-05-17T10:03:18.013Z,24.53
2018-05-17T10:05:44.694Z,29.07
2018-05-17T10:08:11.379Z,27.90
2018-05-17T10:10:38.280Z,25.23
2018-05-17T10:13:04.978Z,26.80
2018-05-17T10:15:32.889Z,25.80
2018-05-17T10:17:59.547Z,23.77
2018-05-17T10:20:26.258Z,25.20
2018-05-17T10:22:52.933Z,26.93
2018-05-17T10:25:19.608Z,25.17
2018-05-17T10:27:46.332Z,23.53
2018-05-17T10:30:13.065Z,23.87
2018-05-17T10:32:39.718Z,24.33
2018-05-17T10:35:06.391Z,28.13
2018-05-17T10:37:33.050Z,29.67
2018-05-17T10:39:59.752Z,23.80
2018-05-17T10:42:26.450Z,25.77
2018-05-17T10:44:53.149Z,24.90
2018-05-17T10:47:19.907Z,25.60
2018-05-17T10:49:46.599Z,19.37
2018-05-17T10:52:13.309Z,23.53
2018-05-17T10:54:40.031Z,23.97
2018-05-17T10:57:06.792Z,21.10
2018-05-17T10:59:33.410Z,18.57
2018-05-17T11:02:00.089Z,22.03
2018-05-17T11:04:29.688Z,22.93
2018-05-17T11:06:56.366Z,19.53
2018-05-17T11:09:23.063Z,20.27
2018-05-17T11:11:49.731Z,21.10
2018-05-17T11:14:16.408Z,21.27
2018-05-17T11:16:43.801Z,23.83
2018-05-17T11:19:10.478Z,26.70
2018-05-17T11:21:37.175Z,20.47
2018-05-17T11:24:03.859Z,27.10
2018-05-17T11:26:30.557Z,24.63
2018-05-17T11:28:57.204Z,23.57
2018-05-17T11:31:23.902Z,23.67
2018-05-17T11:33:50.656Z,22.50
2018-05-17T11:36:17.317Z,22.50
2018-05-17T11:38:44.019Z,26.87
2018-05-17T11:41:10.659Z,23.40
2018-05-17T11:43:37.366Z,22.70
2018-05-17T11:46:04.074Z,24.60
2018-05-17T11:48:30.903Z,25.73
2018-05-17T11:50:57.484Z,24.00
2018-05-17T11:53:24.169Z,28.63
2018-05-17T11:55:50.815Z,23.57
2018-05-17T11:58:17.468Z,24.50
2018-05-17T12:00:44.127Z,26.93
2018-05-17T12:03:11.091Z,22.20
2018-05-17T12:05:37.738Z,22.77
2018-05-17T12:08:04.372Z,24.43
2018-05-17T12:10:31.083Z,25.10
2018-05-17T12:12:57.801Z,24.70
2018-05-17T12:15:24.482Z,23.67
2018-05-17T12:17:51.192Z,27.53
2018-05-17T12:20:17.847Z,30.70
2018-05-17T12:22:44.614Z,27.40
2018-05-17T12:25:11.321Z,20.27
2018-05-17T12:27:37.982Z,24.03
2018-05-17T12:30:04.681Z,20.43
2018-05-17T12:32:31.337Z,26.63
2018-05-17T12:34:58.008Z,25.27
2018-05-17T12:37:24.716Z,21.13
2018-05-17T12:39:51.403Z,18.93
2018-05-17T12:42:18.045Z,20.30
2018-05-17T12:44:44.740Z,22.90
2018-05-17T12:47:11.413Z,25.20
2018-05-17T12:49:38.100Z,20.53
2018-05-17T12:52:05.469Z,19.67
2018-05-17T12:54:32.532Z,18.40
2018-05-17T12:57:00.418Z,21.20
2018-05-17T12:59:27.075Z,18.13
2018-05-17T13:01:53.857Z,19.30
2018-05-17T13:04:20.580Z,20.53
2018-05-17T13:06:47.309Z,23.97
2018-05-17T13:09:13.982Z,19.97
2018-05-17T13:11:40.690Z,18.07
2018-05-17T13:14:07.359Z,16.60
2018-05-17T13:16:34.454Z,21.97
2018-05-17T13:19:01.163Z,20.40
2018-05-17T13:21:27.837Z,17.33
2018-05-17T13:23:54.549Z,18.00
2018-05-17T13:26:21.267Z,18.33
2018-05-17T13:28:48.003Z,17.37
2018-05-17T13:31:14.790Z,19.90
2018-05-17T13:33:41.493Z,17.20
2018-05-17T13:36:08.191Z,18.53
2018-05-17T13:38:35.016Z,21.47
2018-05-17T13:41:01.795Z,19.43
2018-05-17T13:43:28.521Z,19.30
2018-05-17T13:45:55.344Z,20.33
2018-05-17T13:48:21.993Z,20.50
2018-05-17T13:50:48.676Z,16.97
2018-05-17T13:53:15.376Z,12.53
2018-05-17T13:55:42.037Z,14.33
2018-05-17T13:58:08.739Z,18.00
2018-05-17T14:00:35.450Z,16.20
2018-05-17T14:03:02.135Z,17.30
2018-05-17T14:05:28.790Z,16.27
2018-05-17T14:07:55.453Z,14.70
2018-05-17T14:10:22.093Z,16.00
2018-05-17T14:12:48.903Z,19.83
2018-05-17T14:15:15.613Z,16.10
2018-05-17T14:17:42.560Z,16.90
2018-05-17T14:20:09.333Z,19.27
2018-05-17T14:22:36.010Z,13.47
2018-05-17T14:25:02.680Z,14.30
2018-05-17T14:27:29.428Z,23.73
2018-05-17T14:29:56.116Z,16.53
2018-05-17T14:32:22.776Z,17.93
2018-05-17T14:34:49.516Z,15.13
2018-05-17T14:37:16.253Z,12.00
2018-05-17T14:39:42.962Z,15.50
2018-05-17T14:42:09.652Z,13.90
2018-05-17T14:44:36.383Z,19.47
2018-05-17T14:47:03.074Z,14.70
2018-05-17T14:49:29.791Z,18.50
2018-05-17T14:51:56.482Z,14.77
2018-05-17T14:54:23.163Z,12.30
2018-05-17T14:56:49.878Z,16.97
2018-05-17T14:59:16.553Z,19.13
2018-05-17T15:01:43.915Z,15.93
2018-05-17T15:04:10.648Z,17.63
2018-05-17T15:06:37.432Z,14.37
2018-05-17T15:09:04.960Z,12.67
2018-05-17T15:11:31.699Z,14.90
2018-05-17T15:13:58.592Z,14.40
2018-05-17T15:16:25.358Z,14.20
2018-05-17T15:18:52.049Z,13.90
2018-05-17T15:21:18.838Z,15.20
2018-05-17T15:23:45.783Z,20.77
2018-05-17T15:26:12.788Z,15.47
2018-05-17T15:28:41.842Z,15.30
2018-05-17T15:31:10.382Z,15.17
2018-05-17T15:33:37.063Z,14.90
2018-05-17T15:36:03.781Z,22.23
2018-05-17T15:38:30.497Z,13.67
2018-05-17T15:40:57.212Z,17.07
2018-05-17T15:43:23.885Z,15.80
2018-05-17T15:45:51.194Z,15.00
2018-05-17T15:48:17.939Z,21.10
2018-05-17T15:50:44.610Z,12.93
2018-05-17T15:53:11.430Z,15.53
2018-05-17T15:55:38.105Z,12.53
2018-05-17T15:58:04.900Z,15.60
2018-05-17T16:00:31.732Z,16.70
2018-05-17T16:02:58.394Z,13.57
2018-05-17T16:05:26.285Z,17.87
2018-05-17T16:07:53.135Z,19.67
2018-05-17T16:10:19.896Z,14.13
2018-05-17T16:12:46.611Z,12.80
2018-05-17T16:15:13.425Z,16.30
2018-05-17T16:17:40.037Z,15.60
2018-05-17T16:20:06.718Z,18.67
2018-05-17T16:22:34.103Z,15.70
2018-05-17T16:25:00.892Z,14.73
2018-05-17T16:27:27.693Z,15.17
2018-05-17T16:29:54.407Z,17.07
2018-05-17T16:32:21.178Z,15.03
2018-05-17T16:34:47.891Z,13.73
2018-05-17T16:37:14.722Z,17.93
2018-05-17T16:39:41.471Z,15.53
2018-05-17T16:42:08.371Z,18.60
2018-05-17T16:44:35.138Z,14.73
2018-05-17T16:47:01.850Z,16.63
2018-05-17T16:49:28.561Z,14.80
2018-05-17T16:51:56.471Z,14.57
2018-05-17T16:54:23.273Z,14.40
2018-05-17T16:56:50.071Z,13.07
2018-05-17T16:59:16.737Z,14.93
2018-05-17T17:01:43.461Z,15.10
2018-05-17T17:04:10.164Z,14.07
2018-05-17T17:06:36.827Z,17.87
2018-05-17T17:09:03.517Z,24.10
2018-05-17T17:11:30.246Z,14.67
2018-05-17T17:13:56.907Z,19.30
2018-05-17T17:16:23.620Z,24.73
2018-05-17T17:18:50.340Z,22.60
2018-05-17T17:21:17.028Z,28.83
2018-05-17T17:23:43.716Z,23.47
2018-05-17T17:26:10.470Z,20.50
2018-05-17T17:28:37.175Z,19.97
2018-05-17T17:31:03.843Z,20.00
2018-05-17T17:33:30.530Z,18.87
2018-05-17T17:35:57.252Z,22.40
2018-05-17T17:38:24.268Z,17.17
2018-05-17T17:40:51.090Z,21.47
2018-05-17T17:43:17.773Z,18.60
2018-05-17T17:45:44.521Z,19.00
2018-05-17T17:48:11.295Z,18.37
2018-05-17T17:50:37.958Z,20.30
2018-05-17T17:53:04.660Z,21.70
2018-05-17T17:55:31.352Z,22.30
2018-05-17T17:57:58.096Z,21.50
2018-05-17T18:00:25.037Z,17.90
2018-05-17T18:02:51.693Z,19.67
2018-05-17T18:05:18.462Z,17.20
2018-05-17T18:07:45.079Z,18.93
2018-05-17T18:10:11.936Z,20.33
2018-05-17T18:12:38.634Z,21.87
2018-05-17T18:15:05.310Z,19.70
2018-05-17T18:17:32.021Z,21.77
2018-05-17T18:19:58.723Z,21.00
2018-05-17T18:22:25.443Z,20.47
2018-05-17T18:24:52.138Z,22.83
2018-05-17T18:27:18.922Z,21.17
2018-05-17T18:29:45.643Z,18.67
2018-05-17T18:32:12.307Z,19.17
2018-05-17T18:34:39.011Z,17.40
2018-05-17T18:37:05.678Z,21.83
2018-05-17T18:39:32.320Z,19.80
2018-05-17T18:41:58.998Z,20.70
2018-05-17T18:44:25.693Z,19.17
2018-05-17T18:46:53.682Z,18.20
2018-05-17T18:49:21.394Z,18.23
2018-05-17T18:51:48.056Z,19.70
2018-05-17T18:54:14.828Z,20.50
2018-05-17T18:56:41.529Z,16.30
2018-05-17T18:59:08.237Z,23.80
2018-05-17T19:01:35.029Z,21.07
2018-05-17T19:04:01.728Z,16.13
2018-05-17T19:06:28.527Z,16.80
2018-05-17T19:08:55.218Z,20.50
2018-05-17T19:11:22.152Z,20.93
2018-05-17T19:13:48.869Z,19.60
2018-05-17T19:16:15.530Z,18.23
2018-05-17T19:18:42.263Z,20.83
2018-05-17T19:21:09.029Z,25.30
2018-05-17T19:23:35.789Z,18.53
2018-05-17T19:26:02.501Z,18.33
2018-05-17T19:28:29.285Z,18.60
2018-05-17T19:30:55.996Z,22.07
2018-05-17T19:33:23.672Z,19.97
2018-05-17T19:35:50.377Z,15.53
2018-05-17T19:38:17.430Z,17.07
2018-05-17T19:40:44.150Z,15.67
2018-05-17T19:43:10.844Z,22.77
2018-05-17T19:45:37.759Z,23.73
2018-05-17T19:48:04.404Z,18.17
2018-05-17T19:50:31.084Z,17.47
2018-05-17T19:52:58.165Z,18.20
2018-05-17T19:55:24.854Z,18.73
2018-05-17T19:57:51.553Z,19.97
2018-05-17T20:00:18.282Z,20.53
2018-05-17T20:02:44.962Z,22.63
2018-05-17T20:05:11.665Z,20.33
2018-05-17T20:07:38.537Z,20.00
2018-05-17T20:10:05.241Z,20.93
2018-05-17T20:12:32.231Z,19.30
2018-05-17T20:14:58.874Z,25.70
2018-05-17T20:17:25.603Z,21.70
2018-05-17T20:19:52.337Z,20.00
2018-05-17T20:22:19.000Z,22.27
2018-05-17T20:24:45.727Z,26.53
2018-05-17T20:27:12.454Z,28.80
2018-05-17T20:29:39.263Z,26.30
2018-05-17T20:32:05.969Z,24.00
2018-05-17T20:34:32.619Z,24.03
2018-05-17T20:36:59.293Z,21.53
2018-05-17T20:39:25.949Z,24.43
2018-05-17T20:41:52.632Z,23.93
2018-05-17T20:44:19.593Z,21.83
2018-05-17T20:46:46.250Z,26.70
2018-05-17T20:49:12.892Z,25.47
2018-05-17T20:51:39.549Z,25.70
2018-05-17T20:54:06.291Z,24.30
2018-05-17T20:56:32.956Z,26.03
2018-05-17T20:58:59.727Z,24.30
2018-05-17T21:01:26.386Z,23.67
2018-05-17T21:03:53.053Z,22.60
2018-05-17T21:06:19.733Z,21.17
2018-05-17T21:08:46.381Z,23.60
2018-05-17T21:11:13.067Z,24.30
2018-05-17T21:13:39.831Z,25.53
2018-05-17T21:16:06.495Z,25.40
2018-05-17T21:18:33.282Z,28.43
2018-05-17T21:20:59.976Z,25.73
2018-05-17T21:23:26.612Z,28.20
2018-05-17T21:25:53.954Z,29.70
2018-05-17T21:28:21.426Z,29.63
2018-05-17T21:30:52.873Z,21.90
2018-05-17T21:33:19.689Z,21.80
2018-05-17T21:35:47.262Z,23.13
2018-05-17T21:38:14.015Z,24.13
2018-05-17T21:40:40.709Z,27.50
2018-05-17T21:43:07.429Z,19.93
2018-05-17T21:45:34.359Z,20.60
2018-05-17T21:48:01.291Z,32.47
2018-05-17T21:50:28.005Z,28.80
2018-05-17T21:52:54.661Z,24.30
2018-05-17T21:55:21.407Z,34.80
2018-05-17T21:57:48.064Z,22.70
2018-05-17T22:00:15.697Z,25.17
2018-05-17T22:02:42.388Z,28.63
2018-05-17T22:05:09.845Z,25.67
2018-05-17T22:07:36.812Z,30.60
2018-05-17T22:10:03.474Z,22.93
2018-05-17T22:12:30.136Z,27.37
2018-05-17T22:14:56.801Z,22.90
2018-05-17T22:17:23.439Z,25.23
2018-05-17T22:19:50.095Z,26.07
2018-05-17T22:22:16.732Z,20.73
2018-05-17T22:24:43.394Z,23.10
2018-05-17T22:27:10.099Z,30.50
2018-05-17T22:29:36.848Z,23.10
2018-05-17T22:32:03.666Z,25.47
2018-05-17T22:34:30.354Z,25.07
2018-05-17T22:36:57.754Z,26.90
2018-05-17T22:39:24.403Z,27.77
2018-05-17T22:41:51.066Z,27.73
2018-05-17T22:44:17.868Z,26.57
2018-05-17T22:46:44.657Z,23.90
2018-05-17T22:49:11.278Z,23.90
2018-05-17T22:51:37.939Z,22.93
2018-05-17T22:54:04.624Z,26.10
2018-05-17T22:56:37.167Z,22.03
2018-05-17T22:59:03.854Z,28.30
2018-05-17T23:01:30.538Z,28.63
2018-05-17T23:03:57.177Z,23.83
2018-05-17T23:06:23.856Z,24.07
2018-05-17T23:08:50.528Z,25.37
2018-05-17T23:11:17.228Z,23.30
2018-05-17T23:13:43.905Z,23.33
2018-05-17T23:16:10.572Z,21.80
2018-05-17T23:18:37.993Z,27.67
2018-05-17T23:21:04.653Z,28.50
2018-05-17T23:23:31.332Z,23.53
2018-05-17T23:25:57.976Z,24.87
2018-05-17T23:28:24.619Z,17.97
2018-05-17T23:30:51.296Z,21.30
2018-05-17T23:33:17.971Z,22.70
2018-05-17T23:35:44.702Z,19.70
2018-05-17T23:38:11.352Z,22.17
2018-05-17T23:40:55.719Z,18.33
2018-05-17T23:43:22.376Z,23.10
2018-05-17T23:45:49.040Z,20.63
2018-05-17T23:48:15.653Z,20.00
2018-05-17T23:50:42.484Z,22.93
2018-05-17T23:53:09.139Z,20.53
2018-05-17T23:55:35.908Z,20.30
2018-05-17T23:58:02.574Z,20.97
